createdAt,value
2023-03-27T00:01:16.990Z,3.10
2023-03-27T00:03:45.079Z,-0.10
2023-03-27T00:06:16.813Z,2.90
2023-03-27T00:08:46.586Z,2.80
2023-03-27T00:11:14.729Z,2.70
2023-03-27T00:13:49.285Z,2.60
2023-03-27T00:16:17.101Z,2.10
2023-03-27T00:18:45.040Z,2.60
2023-03-27T00:21:12.255Z,2.60
2023-03-27T00:23:39.315Z,2.50
2023-03-27T00:26:06.830Z,2.60
2023-03-27T00:28:34.261Z,2.50
2023-03-27T00:31:02.131Z,2.60
2023-03-27T00:33:29.372Z,2.60
2023-03-27T00:35:56.525Z,2.70
2023-03-27T00:38:24.600Z,2.80
2023-03-27T00:40:54.878Z,2.80
2023-03-27T00:43:43.899Z,2.80
2023-03-27T00:46:51.186Z,2.20
2023-03-27T00:49:18.342Z,2.70
2023-03-27T00:51:48.151Z,2.60
2023-03-27T00:54:22.038Z,2.60
2023-03-27T00:56:50.004Z,2.60
2023-03-27T00:59:21.123Z,2.50
2023-03-27T01:01:48.565Z,2.50
2023-03-27T01:04:21.483Z,2.50
2023-03-27T01:06:51.672Z,2.50
2023-03-27T01:09:21.006Z,2.60
2023-03-27T01:12:16.740Z,2.60
2023-03-27T01:15:09.867Z,2.50
2023-03-27T01:18:16.592Z,2.50
2023-03-27T01:21:23.325Z,2.50
2023-03-27T01:24:30.038Z,2.60
2023-03-27T01:27:07.572Z,2.50
2023-03-27T01:30:04.967Z,2.80
2023-03-27T01:33:01.067Z,2.50
2023-03-27T01:36:08.379Z,2.40
2023-03-27T01:39:05.891Z,2.50
2023-03-27T01:41:57.333Z,2.50
2023-03-27T01:45:04.143Z,2.30
2023-03-27T01:48:11.163Z,2.30
2023-03-27T01:50:47.483Z,2.20
2023-03-27T01:53:37.450Z,2.30
2023-03-27T01:56:18.192Z,2.20
2023-03-27T01:58:49.420Z,2.10
2023-03-27T02:01:22.421Z,2.20
2023-03-27T02:03:54.218Z,2.10
2023-03-27T02:06:28.595Z,-1.00
2023-03-27T02:09:24.747Z,2.20
2023-03-27T02:12:16.646Z,2.10
2023-03-27T02:14:51.497Z,2.10
2023-03-27T02:17:21.662Z,2.10
2023-03-27T02:20:12.437Z,2.00
2023-03-27T02:22:40.251Z,2.10
2023-03-27T02:25:29.561Z,2.00
2023-03-27T02:28:24.803Z,2.10
2023-03-27T02:31:34.620Z,2.10
2023-03-27T02:34:41.891Z,-1.60
2023-03-27T02:37:32.103Z,2.10
2023-03-27T02:40:40.522Z,2.10
2023-03-27T02:43:32.498Z,2.00
2023-03-27T02:46:23.407Z,1.90
2023-03-27T02:48:54.266Z,2.00
2023-03-27T02:51:32.462Z,1.80
2023-03-27T02:54:11.956Z,1.90
2023-03-27T02:56:46.450Z,1.90
2023-03-27T02:59:18.788Z,1.90
2023-03-27T03:01:46.242Z,2.00
2023-03-27T03:04:26.443Z,2.10
2023-03-27T03:06:54.253Z,2.10
2023-03-27T03:09:21.297Z,2.10
2023-03-27T03:11:51.960Z,2.20
2023-03-27T03:14:26.114Z,2.10
2023-03-27T03:16:53.100Z,2.20
2023-03-27T03:19:20.195Z,2.20
2023-03-27T03:21:49.537Z,2.20
2023-03-27T03:24:17.715Z,2.20
2023-03-27T03:26:50.156Z,2.20
2023-03-27T03:29:19.246Z,2.10
2023-03-27T03:31:46.440Z,2.10
2023-03-27T03:34:16.384Z,2.10
2023-03-27T03:36:45.095Z,2.10
2023-03-27T03:39:13.328Z,2.10
2023-03-27T03:41:40.382Z,2.00
2023-03-27T03:44:08.046Z,2.00
2023-03-27T03:46:35.023Z,2.10
2023-03-27T03:49:02.191Z,2.10
2023-03-27T03:51:31.366Z,2.00
2023-03-27T03:53:58.347Z,2.10
2023-03-27T03:56:27.857Z,2.00
2023-03-27T03:58:54.947Z,2.00
2023-03-27T04:01:23.047Z,2.00
2023-03-27T04:03:50.670Z,2.00
2023-03-27T04:06:21.038Z,-0.50
2023-03-27T04:08:48.853Z,2.10
2023-03-27T04:11:15.876Z,2.10
2023-03-27T04:13:42.912Z,2.10
2023-03-27T04:16:10.203Z,2.10
2023-03-27T04:18:40.785Z,2.20
2023-03-27T04:21:14.467Z,2.20
2023-03-27T04:23:42.465Z,2.20
2023-03-27T04:26:12.264Z,2.10
2023-03-27T04:28:40.420Z,2.20
2023-03-27T04:31:08.717Z,2.00
2023-03-27T04:33:39.510Z,2.00
2023-03-27T04:36:08.642Z,2.00
2023-03-27T04:38:39.255Z,1.90
2023-03-27T04:41:06.485Z,1.90
2023-03-27T04:43:36.827Z,2.10
2023-03-27T04:46:06.688Z,1.90
2023-03-27T04:48:34.596Z,1.90
2023-03-27T04:51:01.585Z,1.90
2023-03-27T04:53:31.119Z,1.90
2023-03-27T04:55:58.100Z,1.90
2023-03-27T04:58:26.198Z,1.90
2023-03-27T05:00:56.416Z,1.90
2023-03-27T05:03:26.157Z,1.90
2023-03-27T05:05:53.878Z,1.90
2023-03-27T05:08:21.108Z,2.00
2023-03-27T05:10:48.162Z,2.00
2023-03-27T05:13:15.584Z,2.00
2023-03-27T05:15:43.106Z,2.00
2023-03-27T05:18:10.214Z,2.10
2023-03-27T05:20:37.587Z,4.40
2023-03-27T05:23:04.723Z,2.10
2023-03-27T05:25:33.072Z,2.10
2023-03-27T05:28:00.992Z,2.10
2023-03-27T05:30:29.084Z,2.00
2023-03-27T05:32:59.401Z,2.00
2023-03-27T05:35:28.579Z,2.00
2023-03-27T05:37:57.237Z,2.00
2023-03-27T05:40:26.835Z,2.00
2023-03-27T05:42:55.438Z,2.20
2023-03-27T05:45:23.934Z,2.00
2023-03-27T05:47:56.875Z,2.10
2023-03-27T05:50:27.361Z,2.00
2023-03-27T05:52:56.715Z,2.00
2023-03-27T05:55:27.447Z,2.00
2023-03-27T05:57:55.339Z,2.00
2023-03-27T06:00:26.016Z,2.10
2023-03-27T06:02:56.460Z,2.10
2023-03-27T06:05:24.278Z,2.10
2023-03-27T06:07:52.588Z,2.10
2023-03-27T06:10:21.086Z,2.10
2023-03-27T06:12:49.368Z,2.00
2023-03-27T06:15:16.973Z,2.00
2023-03-27T06:17:46.970Z,2.10
2023-03-27T06:20:15.535Z,2.00
2023-03-27T06:22:52.137Z,2.20
2023-03-27T06:25:21.430Z,1.00
2023-03-27T06:27:49.831Z,2.20
2023-03-27T06:30:19.531Z,2.10
2023-03-27T06:32:49.524Z,2.10
2023-03-27T06:35:17.454Z,2.10
2023-03-27T06:37:48.884Z,2.00
2023-03-27T06:40:27.964Z,1.90
2023-03-27T06:43:00.744Z,1.80
2023-03-27T06:45:31.591Z,1.90
2023-03-27T06:48:16.955Z,1.80
2023-03-27T06:50:47.793Z,1.90
2023-03-27T06:53:26.624Z,1.90
2023-03-27T06:55:55.269Z,1.90
2023-03-27T06:58:22.646Z,0.80
2023-03-27T07:00:50.473Z,1.90
2023-03-27T07:03:19.633Z,1.90
2023-03-27T07:05:46.712Z,1.80
2023-03-27T07:10:50.618Z,1.70
2023-03-27T07:13:23.768Z,3.00
2023-03-27T07:15:51.769Z,1.90
2023-03-27T07:18:18.962Z,1.60
2023-03-27T07:20:48.225Z,1.80
2023-03-27T07:23:15.262Z,1.70
2023-03-27T07:25:42.970Z,1.70
2023-03-27T07:28:14.106Z,1.70
2023-03-27T07:30:41.517Z,1.60
2023-03-27T07:33:09.655Z,1.60
2023-03-27T07:35:52.404Z,1.70
2023-03-27T07:38:19.462Z,1.70
2023-03-27T07:40:46.765Z,1.60
2023-03-27T07:43:14.359Z,1.60
2023-03-27T07:45:42.113Z,1.60
2023-03-27T07:48:12.175Z,1.60
2023-03-27T07:50:39.691Z,1.60
2023-03-27T07:53:06.790Z,1.60
2023-03-27T07:55:36.905Z,1.60
2023-03-27T07:58:07.260Z,1.60
2023-03-27T08:00:36.111Z,1.60
2023-03-27T08:03:07.215Z,1.60
2023-03-27T08:05:34.812Z,1.60
2023-03-27T08:08:02.036Z,1.60
2023-03-27T08:10:29.268Z,1.60
2023-03-27T08:12:57.221Z,1.60
2023-03-27T08:15:25.348Z,1.60
2023-03-27T08:17:55.463Z,1.60
2023-03-27T08:20:24.099Z,4.30
2023-03-27T08:22:52.958Z,1.60
2023-03-27T08:25:22.640Z,1.20
2023-03-27T08:30:19.168Z,1.60
2023-03-27T08:32:46.550Z,1.50
2023-03-27T08:35:13.785Z,1.50
2023-03-27T08:37:41.634Z,1.50
2023-03-27T08:40:19.710Z,1.50
2023-03-27T08:42:50.556Z,1.50
2023-03-27T08:45:25.229Z,1.60
2023-03-27T08:48:02.958Z,1.60
2023-03-27T08:50:38.605Z,1.60
2023-03-27T08:53:11.514Z,1.60
2023-03-27T08:55:44.649Z,-1.40
2023-03-27T08:58:19.837Z,1.80
2023-03-27T09:00:58.444Z,1.80
2023-03-27T09:03:32.428Z,1.90
2023-03-27T09:06:10.190Z,2.00
2023-03-27T09:09:17.126Z,2.00
2023-03-27T09:12:23.981Z,2.00
2023-03-27T09:14:58.240Z,1.90
2023-03-27T09:17:32.753Z,2.00
2023-03-27T09:20:23.577Z,2.10
2023-03-27T09:22:55.313Z,2.30
2023-03-27T09:25:29.056Z,2.30
2023-03-27T09:27:57.097Z,2.40
2023-03-27T09:30:28.586Z,2.30
2023-03-27T09:33:01.917Z,2.60
2023-03-27T09:35:29.406Z,1.10
2023-03-27T09:38:03.814Z,2.40
2023-03-27T09:40:41.134Z,2.60
2023-03-27T09:43:13.754Z,2.70
2023-03-27T09:45:41.966Z,2.70
2023-03-27T09:48:16.363Z,2.70
2023-03-27T09:50:47.406Z,2.60
2023-03-27T09:53:19.463Z,2.90
2023-03-27T09:56:07.485Z,2.90
2023-03-27T09:58:44.179Z,2.90
2023-03-27T10:01:36.453Z,2.80
2023-03-27T10:04:14.026Z,2.70
2023-03-27T10:07:18.380Z,2.70
2023-03-27T10:10:07.645Z,2.70
2023-03-27T10:12:36.602Z,2.80
2023-03-27T10:15:06.970Z,2.80
2023-03-27T10:17:38.634Z,2.80
2023-03-27T10:20:13.230Z,2.40
2023-03-27T10:22:42.876Z,2.30
2023-03-27T10:25:19.278Z,2.10
2023-03-27T10:27:46.692Z,2.20
2023-03-27T10:30:45.214Z,2.10
2023-03-27T10:33:12.191Z,1.20
2023-03-27T10:35:44.108Z,2.10
2023-03-27T10:38:14.529Z,2.20
2023-03-27T10:40:44.721Z,2.50
2023-03-27T10:43:16.060Z,2.20
2023-03-27T10:46:07.200Z,2.30
2023-03-27T10:48:59.095Z,2.30
2023-03-27T10:51:50.956Z,2.30
2023-03-27T10:54:57.674Z,1.90
2023-03-27T11:05:04.828Z,1.70
2023-03-27T11:15:18.304Z,1.60
2023-03-27T11:23:09.148Z,1.80
2023-03-27T11:31:12.085Z,2.00
2023-03-27T11:33:48.988Z,2.00
2023-03-27T11:39:32.136Z,1.70
2023-03-27T11:50:04.818Z,1.30
2023-03-27T11:53:01.606Z,1.40
2023-03-27T11:56:09.737Z,1.40
2023-03-27T11:59:16.613Z,1.50
2023-03-27T12:02:23.435Z,1.40
2023-03-27T12:05:30.167Z,1.20
2023-03-27T12:08:17.342Z,1.20
2023-03-27T12:10:49.845Z,1.10
2023-03-27T12:14:01.880Z,1.00
2023-03-27T12:17:09.563Z,1.10
2023-03-27T12:36:18.595Z,1.80
2023-03-27T12:43:46.194Z,1.70
2023-03-27T12:48:58.713Z,2.00
2023-03-27T12:51:54.849Z,2.10
2023-03-27T12:54:28.297Z,2.10
2023-03-27T12:57:15.666Z,1.30
2023-03-27T12:59:48.899Z,2.30
2023-03-27T13:02:18.832Z,2.10
2023-03-27T13:05:00.583Z,2.10
2023-03-27T13:07:54.954Z,1.90
2023-03-27T13:10:59.581Z,1.90
2023-03-27T13:14:03.903Z,1.80
2023-03-27T13:16:38.175Z,1.60
2023-03-27T13:19:13.940Z,1.60
2023-03-27T13:22:14.484Z,1.60
2023-03-27T13:25:00.462Z,1.50
2023-03-27T13:27:35.798Z,1.50
2023-03-27T13:30:03.608Z,1.40
2023-03-27T13:32:38.913Z,1.60
2023-03-27T13:35:05.798Z,1.70
2023-03-27T13:37:36.455Z,1.60
2023-03-27T13:40:29.741Z,1.60
2023-03-27T13:43:10.269Z,1.70
2023-03-27T13:45:50.726Z,1.60
2023-03-27T13:48:50.457Z,1.60
2023-03-27T13:51:40.227Z,1.60
2023-03-27T13:54:28.716Z,1.70
2023-03-27T13:57:23.864Z,1.80
2023-03-27T14:00:13.643Z,1.90
2023-03-27T14:03:18.956Z,2.20
2023-03-27T14:06:03.988Z,2.20
2023-03-27T14:09:12.272Z,2.30
2023-03-27T14:12:08.483Z,2.30
2023-03-27T14:14:47.450Z,2.20
2023-03-27T14:17:43.191Z,2.20
2023-03-27T14:20:13.505Z,2.10
2023-03-27T14:22:49.219Z,2.10
2023-03-27T14:25:19.945Z,2.00
2023-03-27T14:27:54.091Z,2.00
2023-03-27T14:30:41.338Z,1.90
2023-03-27T14:33:10.220Z,1.80
2023-03-27T14:35:44.352Z,1.80
2023-03-27T14:38:26.428Z,1.80
2023-03-27T14:41:17.562Z,1.80
2023-03-27T14:43:52.719Z,1.70
2023-03-27T14:46:21.498Z,1.70
2023-03-27T14:48:54.658Z,1.60
2023-03-27T14:51:33.999Z,1.60
2023-03-27T14:54:07.809Z,1.70
2023-03-27T14:56:47.584Z,1.90
2023-03-27T14:59:22.842Z,2.00
2023-03-27T15:01:52.342Z,1.90
2023-03-27T15:04:19.594Z,1.90
2023-03-27T15:06:49.976Z,1.90
2023-03-27T15:09:20.097Z,1.70
2023-03-27T15:11:55.536Z,1.50
2023-03-27T15:14:26.596Z,1.30
2023-03-27T15:17:15.167Z,1.20
2023-03-27T15:19:48.596Z,1.20
2023-03-27T15:22:23.336Z,1.10
2023-03-27T15:24:58.422Z,1.20
2023-03-27T15:27:30.146Z,1.10
2023-03-27T15:30:20.727Z,1.10
2023-03-27T15:32:52.420Z,1.00
2023-03-27T15:35:40.678Z,1.10
2023-03-27T15:38:12.606Z,1.00
2023-03-27T15:40:43.640Z,1.00
2023-03-27T15:43:13.661Z,0.90
2023-03-27T15:46:01.981Z,0.80
2023-03-27T15:48:40.885Z,0.70
2023-03-27T15:51:26.882Z,0.80
2023-03-27T15:53:55.977Z,0.70
2023-03-27T15:56:40.349Z,0.70
2023-03-27T15:59:10.628Z,0.60
2023-03-27T16:01:40.429Z,0.60
2023-03-27T16:04:16.875Z,0.80
2023-03-27T16:06:51.265Z,0.60
2023-03-27T16:09:18.169Z,0.50
2023-03-27T16:11:47.890Z,0.70
2023-03-27T16:14:31.667Z,0.60
2023-03-27T16:17:15.437Z,0.70
2023-03-27T16:19:54.879Z,0.70
2023-03-27T16:22:33.356Z,0.70
2023-03-27T16:25:02.205Z,0.70
2023-03-27T16:27:34.603Z,0.70
2023-03-27T16:30:01.530Z,0.70
2023-03-27T16:32:28.472Z,0.80
2023-03-27T16:34:55.850Z,0.70
2023-03-27T16:37:27.282Z,0.70
2023-03-27T16:39:55.098Z,0.70
2023-03-27T16:42:26.074Z,0.60
2023-03-27T16:44:54.134Z,0.60
2023-03-27T16:47:23.148Z,0.60
2023-03-27T16:50:03.559Z,0.60
2023-03-27T16:52:37.113Z,0.70
2023-03-27T16:55:07.170Z,0.50
2023-03-27T16:57:34.270Z,0.40
2023-03-27T17:00:01.224Z,0.60
2023-03-27T17:02:28.871Z,0.40
2023-03-27T17:04:55.907Z,0.30
2023-03-27T17:07:25.310Z,0.60
2023-03-27T17:09:52.148Z,0.40
2023-03-27T17:12:19.128Z,0.30
2023-03-27T17:14:46.187Z,1.80
2023-03-27T17:17:13.392Z,0.10
2023-03-27T17:19:40.355Z,0.10
2023-03-27T17:22:07.258Z,0.20
2023-03-27T17:24:45.679Z,0.20
2023-03-27T17:27:20.770Z,0.10
2023-03-27T17:29:48.012Z,0.00
2023-03-27T17:32:14.921Z,0.00
2023-03-27T17:34:41.820Z,-0.10
2023-03-27T17:37:08.731Z,-0.10
2023-03-27T17:39:35.782Z,-0.10
2023-03-27T17:42:02.712Z,-0.10
2023-03-27T17:44:29.575Z,-0.10
2023-03-27T17:46:56.679Z,-0.20
2023-03-27T17:49:23.800Z,-0.20
2023-03-27T17:51:50.791Z,0.30
2023-03-27T17:54:18.571Z,-0.30
2023-03-27T17:56:46.594Z,-0.30
2023-03-27T17:59:13.566Z,-0.30
2023-03-27T18:01:40.536Z,-0.30
2023-03-27T18:04:07.621Z,0.00
2023-03-27T18:06:34.758Z,-0.30
2023-03-27T18:09:01.602Z,-0.30
2023-03-27T18:11:29.791Z,-0.30
2023-03-27T18:13:57.193Z,-0.30
2023-03-27T18:16:24.371Z,0.10
2023-03-27T18:18:54.332Z,-0.30
2023-03-27T18:21:21.900Z,-0.30
2023-03-27T18:23:49.027Z,-0.30
2023-03-27T18:26:16.852Z,-0.30
2023-03-27T18:28:43.773Z,-0.30
2023-03-27T18:31:12.182Z,-0.20
2023-03-27T18:33:39.127Z,-0.10
2023-03-27T18:36:10.791Z,-0.30
2023-03-27T18:38:40.444Z,-0.30
2023-03-27T18:41:08.506Z,-0.30
2023-03-27T18:43:35.717Z,-0.40
2023-03-27T18:46:05.526Z,-0.40
2023-03-27T18:48:32.610Z,-0.40
2023-03-27T18:51:05.090Z,-0.30
2023-03-27T18:53:32.116Z,-0.40
2023-03-27T18:56:00.087Z,-0.40
2023-03-27T18:58:28.451Z,-0.40
2023-03-27T19:00:56.971Z,-0.50
2023-03-27T19:03:26.569Z,-0.50
2023-03-27T19:05:53.790Z,-0.50
2023-03-27T19:08:22.061Z,-0.60
2023-03-27T19:10:49.262Z,-0.60
2023-03-27T19:13:16.265Z,-0.60
2023-03-27T19:15:43.882Z,-0.70
2023-03-27T19:18:11.134Z,-0.70
2023-03-27T19:20:38.272Z,-0.70
2023-03-27T19:23:05.400Z,-0.70
2023-03-27T19:25:36.339Z,-0.60
2023-03-27T19:28:04.556Z,-0.80
2023-03-27T19:30:32.464Z,-0.80
2023-03-27T19:32:59.576Z,-0.50
2023-03-27T19:35:27.207Z,-0.80
2023-03-27T19:37:57.087Z,-0.80
2023-03-27T19:40:24.379Z,-0.50
2023-03-27T19:42:51.602Z,-0.70
2023-03-27T19:45:18.646Z,-0.40
2023-03-27T19:47:45.665Z,-0.70
2023-03-27T19:50:14.571Z,-0.20
2023-03-27T19:52:42.637Z,-0.70
2023-03-27T19:55:09.689Z,-0.30
2023-03-27T19:57:36.618Z,-0.70
2023-03-27T20:00:09.537Z,-0.70
2023-03-27T20:02:37.050Z,-0.60
2023-03-27T20:05:04.210Z,-0.20
2023-03-27T20:07:31.390Z,-0.70
2023-03-27T20:09:58.317Z,-0.80
2023-03-27T20:12:25.577Z,-0.90
2023-03-27T20:17:38.147Z,-0.90
2023-03-27T20:20:07.450Z,-1.00
2023-03-27T20:22:40.737Z,-1.00
2023-03-27T20:25:14.578Z,-1.00
2023-03-27T20:27:41.716Z,-1.10
2023-03-27T20:30:14.102Z,-1.10
2023-03-27T20:32:42.330Z,-1.10
2023-03-27T20:35:20.546Z,-1.20
2023-03-27T20:37:56.486Z,-1.20
2023-03-27T20:40:24.461Z,-0.80
2023-03-27T20:43:03.027Z,-0.70
2023-03-27T20:45:31.202Z,-1.00
2023-03-27T20:48:03.235Z,-0.40
2023-03-27T20:50:35.880Z,-0.90
2023-03-27T20:53:04.408Z,-0.60
2023-03-27T20:55:34.741Z,-0.70
2023-03-27T20:58:06.704Z,0.60
2023-03-27T21:00:34.059Z,-1.40
2023-03-27T21:03:01.470Z,-1.50
2023-03-27T21:05:28.659Z,-1.40
2023-03-27T21:07:56.644Z,-1.50
2023-03-27T21:10:24.679Z,-0.80
2023-03-27T21:12:52.799Z,-0.60
2023-03-27T21:15:19.715Z,0.50
2023-03-27T21:17:46.726Z,-0.30
2023-03-27T21:20:13.882Z,-1.50
2023-03-27T21:22:40.944Z,-1.50
2023-03-27T21:25:08.077Z,-0.50
2023-03-27T21:27:34.940Z,-1.50
2023-03-27T21:30:01.898Z,-1.20
2023-03-27T21:32:28.888Z,-0.30
2023-03-27T21:34:55.933Z,-1.50
2023-03-27T21:37:22.810Z,-1.60
2023-03-27T21:39:49.704Z,-1.60
2023-03-27T21:42:16.968Z,-1.50
2023-03-27T21:44:46.893Z,-1.50
2023-03-27T21:47:16.724Z,-1.50
2023-03-27T21:49:43.643Z,-0.80
2023-03-27T21:52:10.581Z,-0.40
2023-03-27T21:54:37.536Z,-0.80
2023-03-27T21:57:04.738Z,-1.40
2023-03-27T21:59:31.682Z,-1.50
2023-03-27T22:01:58.651Z,-0.70
2023-03-27T22:04:26.952Z,-0.80
2023-03-27T22:06:53.849Z,0.60
2023-03-27T22:09:20.828Z,-1.00
2023-03-27T22:11:47.848Z,-1.50
2023-03-27T22:14:14.823Z,-1.50
2023-03-27T22:16:42.033Z,-0.80
2023-03-27T22:19:09.398Z,-0.80
2023-03-27T22:21:36.266Z,-0.70
2023-03-27T22:24:03.256Z,-0.20
2023-03-27T22:26:33.059Z,-1.40
2023-03-27T22:28:59.921Z,-1.00
2023-03-27T22:31:27.422Z,-0.90
2023-03-27T22:33:54.643Z,-0.80
2023-03-27T22:36:22.276Z,-0.90
2023-03-27T22:38:49.520Z,-1.10
2023-03-27T22:41:16.478Z,-0.60
2023-03-27T22:43:43.485Z,-1.00
2023-03-27T22:46:19.399Z,-0.70
2023-03-27T22:48:46.483Z,-1.20
2023-03-27T22:51:13.789Z,-1.40
2023-03-27T22:53:41.256Z,-1.30
2023-03-27T22:56:08.679Z,-1.40
2023-03-27T22:58:35.751Z,-1.40
2023-03-27T23:01:05.406Z,-0.70
2023-03-27T23:03:32.702Z,-1.30
2023-03-27T23:05:59.931Z,0.10
2023-03-27T23:08:28.559Z,-1.30
2023-03-27T23:10:58.147Z,-0.90
2023-03-27T23:13:26.571Z,-1.20
2023-03-27T23:15:53.536Z,-1.20
2023-03-27T23:18:23.932Z,-1.10
2023-03-27T23:21:05.438Z,0.00
2023-03-27T23:23:34.177Z,-1.10
2023-03-27T23:26:01.349Z,-1.00
2023-03-27T23:28:31.520Z,-1.00
2023-03-27T23:31:04.004Z,-0.50
2023-03-27T23:33:36.501Z,-1.10
2023-03-27T23:36:07.408Z,-1.10
2023-03-27T23:38:34.417Z,-1.10
2023-03-27T23:41:02.620Z,-0.30
2023-03-27T23:43:30.601Z,-1.10
2023-03-27T23:46:01.481Z,0.00
2023-03-27T23:48:29.663Z,-0.20
2023-03-27T23:50:57.302Z,-0.60
2023-03-27T23:53:26.446Z,-0.60
2023-03-27T23:55:56.174Z,-0.90
2023-03-27T23:58:24.376Z,-1.00
